createdAt,value
2023-05-05T00:00:53.495Z,13.89
2023-05-05T00:03:26.046Z,13.87
2023-05-05T00:05:55.298Z,13.88
2023-05-05T00:08:23.765Z,13.83
2023-05-05T00:10:53.942Z,13.80
2023-05-05T00:13:22.135Z,13.78
2023-05-05T00:15:51.233Z,13.73
2023-05-05T00:18:19.800Z,13.70
2023-05-05T00:20:49.277Z,13.68
2023-05-05T00:23:18.170Z,13.62
2023-05-05T00:25:45.807Z,13.60
2023-05-05T00:28:14.084Z,13.58
2023-05-05T00:30:46.995Z,13.55
2023-05-05T00:33:14.701Z,13.52
2023-05-05T00:35:42.446Z,13.49
2023-05-05T00:38:12.917Z,13.46
2023-05-05T00:40:40.608Z,13.42
2023-05-05T00:43:10.014Z,13.40
2023-05-05T00:45:41.691Z,13.36
2023-05-05T00:48:10.049Z,13.34
2023-05-05T00:50:38.340Z,13.33
2023-05-05T00:53:07.933Z,13.31
2023-05-05T00:55:37.494Z,13.30
2023-05-05T00:58:05.769Z,13.29
2023-05-05T01:00:34.177Z,13.26
2023-05-05T01:03:01.950Z,13.24
2023-05-05T01:05:38.925Z,13.21
2023-05-05T01:08:24.181Z,13.17
2023-05-05T01:10:58.941Z,13.13
2023-05-05T01:13:33.938Z,13.11
2023-05-05T01:16:08.056Z,13.05
2023-05-05T01:18:42.252Z,13.01
2023-05-05T01:21:16.017Z,12.97
2023-05-05T01:24:28.117Z,12.94
2023-05-05T01:27:09.286Z,12.89
2023-05-05T01:30:02.984Z,12.85
2023-05-05T01:32:37.133Z,12.79
2023-05-05T01:35:14.660Z,12.76
2023-05-05T01:38:12.578Z,12.73
2023-05-05T01:40:45.993Z,12.70
2023-05-05T01:43:18.641Z,12.68
2023-05-05T01:45:52.028Z,12.67
2023-05-05T01:48:23.000Z,12.65
2023-05-05T01:50:52.495Z,12.65
2023-05-05T01:53:22.746Z,12.64
2023-05-05T01:55:51.467Z,12.64
2023-05-05T01:58:19.994Z,12.64
2023-05-05T02:00:48.873Z,12.64
2023-05-05T02:03:18.145Z,12.65
2023-05-05T02:05:48.462Z,12.64
2023-05-05T02:08:16.802Z,12.64
2023-05-05T02:10:46.105Z,12.65
2023-05-05T02:13:15.393Z,12.64
2023-05-05T02:15:45.013Z,12.63
2023-05-05T02:18:13.532Z,12.63
2023-05-05T02:20:42.204Z,12.61
2023-05-05T02:23:11.162Z,12.59
2023-05-05T02:25:42.860Z,12.57
2023-05-05T02:28:18.113Z,12.53
2023-05-05T02:30:52.948Z,12.50
2023-05-05T02:33:23.513Z,12.46
2023-05-05T02:35:54.529Z,12.43
2023-05-05T02:38:29.576Z,12.41
2023-05-05T02:41:04.323Z,12.37
2023-05-05T02:46:29.318Z,12.32
2023-05-05T02:48:59.553Z,12.31
2023-05-05T02:51:28.726Z,12.31
2023-05-05T02:54:01.942Z,12.29
2023-05-05T02:56:41.551Z,12.28
2023-05-05T02:59:16.946Z,12.28
2023-05-05T03:01:58.038Z,12.29
2023-05-05T03:04:30.943Z,12.29
2023-05-05T03:07:00.914Z,12.28
2023-05-05T03:09:38.649Z,12.28
2023-05-05T03:12:13.002Z,12.27
2023-05-05T03:15:01.681Z,12.29
2023-05-05T03:17:33.593Z,12.29
2023-05-05T03:20:04.487Z,12.30
2023-05-05T03:22:36.753Z,12.30
2023-05-05T03:25:07.966Z,12.29
2023-05-05T03:27:35.914Z,12.29
2023-05-05T03:30:04.505Z,12.30
2023-05-05T03:32:34.015Z,12.28
2023-05-05T03:35:02.205Z,12.28
2023-05-05T03:37:33.742Z,12.32
2023-05-05T03:40:03.110Z,12.30
2023-05-05T03:42:34.969Z,12.34
2023-05-05T03:45:02.769Z,12.34
2023-05-05T03:47:32.017Z,12.33
2023-05-05T03:50:00.646Z,12.33
2023-05-05T03:52:28.992Z,12.34
2023-05-05T03:55:00.170Z,12.35
2023-05-05T03:57:28.808Z,12.35
2023-05-05T03:59:57.952Z,12.35
2023-05-05T04:02:26.143Z,12.38
2023-05-05T04:04:54.597Z,12.36
2023-05-05T04:07:23.933Z,12.37
2023-05-05T04:09:51.888Z,12.35
2023-05-05T04:12:19.788Z,12.35
2023-05-05T04:14:47.576Z,12.36
2023-05-05T04:17:20.927Z,12.34
2023-05-05T04:19:50.326Z,12.33
2023-05-05T04:22:18.949Z,12.34
2023-05-05T04:24:47.115Z,12.35
2023-05-05T04:27:14.742Z,12.33
2023-05-05T04:29:42.639Z,12.34
2023-05-05T04:32:11.177Z,12.34
2023-05-05T04:34:41.338Z,12.34
2023-05-05T04:37:09.282Z,12.34
2023-05-05T04:39:37.923Z,12.34
2023-05-05T04:42:06.452Z,12.38
2023-05-05T04:44:34.650Z,12.39
2023-05-05T04:47:03.068Z,12.34
2023-05-05T04:49:31.968Z,12.32
2023-05-05T04:52:01.035Z,12.30
2023-05-05T04:54:28.762Z,12.29
2023-05-05T04:56:56.486Z,12.28
2023-05-05T04:59:25.333Z,12.28
2023-05-05T05:01:52.958Z,12.27
2023-05-05T05:04:23.037Z,12.27
2023-05-05T05:06:52.587Z,12.25
2023-05-05T05:09:46.854Z,12.27
2023-05-05T05:12:14.529Z,12.27
2023-05-05T05:14:42.503Z,12.37
2023-05-05T05:17:10.795Z,12.40
2023-05-05T05:19:39.114Z,12.37
2023-05-05T05:22:06.696Z,12.37
2023-05-05T05:24:39.780Z,12.40
2023-05-05T05:27:10.198Z,12.44
2023-05-05T05:29:42.018Z,12.52
2023-05-05T05:32:11.630Z,12.61
2023-05-05T05:34:39.670Z,12.70
2023-05-05T05:37:09.361Z,12.77
2023-05-05T05:39:37.662Z,12.83
2023-05-05T05:42:07.748Z,12.91
2023-05-05T05:44:35.346Z,12.98
2023-05-05T05:47:03.101Z,13.06
2023-05-05T05:49:32.958Z,13.15
2023-05-05T05:52:00.654Z,13.25
2023-05-05T05:54:28.332Z,13.32
2023-05-05T05:56:56.084Z,13.45
2023-05-05T05:59:25.031Z,13.57
2023-05-05T06:01:53.333Z,13.69
2023-05-05T06:04:21.042Z,13.83
2023-05-05T06:06:49.660Z,13.95
2023-05-05T06:09:17.690Z,14.06
2023-05-05T06:11:46.372Z,14.16
2023-05-05T06:14:15.026Z,14.27
2023-05-05T06:16:44.141Z,14.35
2023-05-05T06:19:16.112Z,14.41
2023-05-05T06:21:44.416Z,14.49
2023-05-05T06:24:13.691Z,14.58
2023-05-05T06:26:41.939Z,14.67
2023-05-05T06:29:12.240Z,14.79
2023-05-05T06:31:40.208Z,14.89
2023-05-05T06:34:09.950Z,15.01
2023-05-05T06:36:39.053Z,15.13
2023-05-05T06:39:07.092Z,15.23
2023-05-05T06:41:36.032Z,15.35
2023-05-05T06:44:03.630Z,15.49
2023-05-05T06:46:31.942Z,15.63
2023-05-05T06:49:01.068Z,15.76
2023-05-05T06:51:31.259Z,15.91
2023-05-05T06:53:58.971Z,16.05
2023-05-05T06:56:27.942Z,16.13
2023-05-05T06:58:56.429Z,16.22
2023-05-05T07:01:24.490Z,16.33
2023-05-05T07:03:52.308Z,16.45
2023-05-05T07:06:23.956Z,16.55
2023-05-05T07:08:53.429Z,16.64
2023-05-05T07:11:21.072Z,16.72
2023-05-05T07:13:49.293Z,16.83
2023-05-05T07:16:17.524Z,16.97
2023-05-05T07:18:45.271Z,17.12
2023-05-05T07:21:12.814Z,17.22
2023-05-05T07:23:41.430Z,17.34
2023-05-05T07:26:10.476Z,17.50
2023-05-05T07:28:39.611Z,17.65
2023-05-05T07:31:07.453Z,17.80
2023-05-05T07:33:35.055Z,17.96
2023-05-05T07:36:05.245Z,18.07
2023-05-05T07:38:32.883Z,18.24
2023-05-05T07:41:00.425Z,18.38
2023-05-05T07:43:29.492Z,18.47
2023-05-05T07:45:57.187Z,18.58
2023-05-05T07:48:25.950Z,18.66
2023-05-05T07:50:54.778Z,18.75
2023-05-05T07:53:23.478Z,18.79
2023-05-05T07:56:16.967Z,18.91
2023-05-05T07:58:46.791Z,18.99
2023-05-05T08:01:39.941Z,19.05
2023-05-05T08:04:08.614Z,19.11
2023-05-05T08:06:36.969Z,19.15
2023-05-05T08:09:04.705Z,19.21
2023-05-05T08:11:32.962Z,19.27
2023-05-05T08:14:02.777Z,19.29
2023-05-05T08:16:30.600Z,19.33
2023-05-05T08:18:58.174Z,19.32
2023-05-05T08:21:25.788Z,19.35
2023-05-05T08:26:45.209Z,19.47
2023-05-05T08:29:14.959Z,19.54
2023-05-05T08:31:42.708Z,19.62
2023-05-05T08:34:10.312Z,19.66
2023-05-05T08:36:38.959Z,19.71
2023-05-05T08:39:07.996Z,19.63
2023-05-05T08:41:36.492Z,19.61
2023-05-05T08:44:04.093Z,19.67
2023-05-05T08:46:33.991Z,19.76
2023-05-05T08:49:04.392Z,19.87
2023-05-05T08:51:39.404Z,19.99
2023-05-05T08:54:10.002Z,20.09
2023-05-05T08:56:42.284Z,20.18
2023-05-05T08:59:12.085Z,20.25
2023-05-05T09:01:42.756Z,20.26
2023-05-05T09:04:10.802Z,20.25
2023-05-05T09:06:40.835Z,20.30
2023-05-05T09:09:10.044Z,20.34
2023-05-05T09:11:38.976Z,20.43
2023-05-05T09:14:06.588Z,20.51
2023-05-05T09:16:34.202Z,20.59
2023-05-05T09:19:05.085Z,20.73
2023-05-05T09:21:33.315Z,20.92
2023-05-05T09:24:08.607Z,21.11
2023-05-05T09:26:39.397Z,21.17
2023-05-05T09:29:07.966Z,21.24
2023-05-05T09:31:37.997Z,21.33
2023-05-05T09:34:17.508Z,21.41
2023-05-05T09:36:48.808Z,21.47
2023-05-05T09:39:19.050Z,21.52
2023-05-05T09:41:47.145Z,21.69
2023-05-05T09:44:16.833Z,21.80
2023-05-05T09:46:52.291Z,21.77
2023-05-05T09:49:23.469Z,21.83
2023-05-05T09:51:52.736Z,21.93
2023-05-05T09:54:25.066Z,22.00
2023-05-05T09:56:54.055Z,22.03
2023-05-05T09:59:22.171Z,22.08
2023-05-05T10:01:52.173Z,22.26
2023-05-05T10:04:28.985Z,22.27
2023-05-05T10:06:59.986Z,22.18
2023-05-05T10:09:29.030Z,22.15
2023-05-05T10:11:58.703Z,22.20
2023-05-05T10:14:28.059Z,22.30
2023-05-05T10:16:56.400Z,22.48
2023-05-05T10:19:25.454Z,22.63
2023-05-05T10:22:00.968Z,22.82
2023-05-05T10:24:40.072Z,22.80
2023-05-05T10:30:07.737Z,22.71
2023-05-05T10:35:17.212Z,22.72
2023-05-05T10:37:48.973Z,22.57
2023-05-05T10:40:21.991Z,22.50
2023-05-05T10:42:51.248Z,22.46
2023-05-05T10:45:18.876Z,22.40
2023-05-05T10:47:46.778Z,22.31
2023-05-05T10:50:18.868Z,22.25
2023-05-05T10:52:57.560Z,22.26
2023-05-05T10:55:33.142Z,22.29
2023-05-05T10:58:01.635Z,22.36
2023-05-05T11:00:53.928Z,22.39
2023-05-05T11:03:25.678Z,22.42
2023-05-05T11:06:13.484Z,22.46
2023-05-05T11:08:44.523Z,22.48
2023-05-05T11:11:13.590Z,22.46
2023-05-05T11:13:42.482Z,22.40
2023-05-05T11:16:45.649Z,22.35
2023-05-05T11:19:55.867Z,22.28
2023-05-05T11:22:23.449Z,22.18
2023-05-05T11:24:53.981Z,22.25
2023-05-05T11:27:22.094Z,22.35
2023-05-05T11:30:10.630Z,22.46
2023-05-05T11:32:38.515Z,22.45
2023-05-05T11:35:08.816Z,22.45
2023-05-05T11:37:39.005Z,22.42
2023-05-05T11:40:22.005Z,22.41
2023-05-05T11:42:50.576Z,22.41
2023-05-05T11:45:22.749Z,22.37
2023-05-05T11:47:50.692Z,22.33
2023-05-05T11:50:21.549Z,22.34
2023-05-05T11:52:49.503Z,22.33
2023-05-05T11:55:25.695Z,22.34
2023-05-05T11:57:53.943Z,22.40
2023-05-05T12:00:33.541Z,22.45
2023-05-05T12:03:26.455Z,22.49
2023-05-05T12:05:57.079Z,22.53
2023-05-05T12:08:25.418Z,22.58
2023-05-05T12:10:55.013Z,22.63
2023-05-05T12:13:23.656Z,22.66
2023-05-05T12:15:52.132Z,22.70
2023-05-05T12:18:21.125Z,22.71
2023-05-05T12:20:52.797Z,22.81
2023-05-05T12:23:20.625Z,22.63
2023-05-05T12:25:50.001Z,22.45
2023-05-05T12:28:18.985Z,22.34
2023-05-05T12:30:57.474Z,22.31
2023-05-05T12:33:25.332Z,22.34
2023-05-05T12:35:53.050Z,22.36
2023-05-05T12:38:20.657Z,22.39
2023-05-05T12:40:51.997Z,22.44
2023-05-05T12:43:34.102Z,22.48
2023-05-05T12:46:07.572Z,22.43
2023-05-05T12:48:38.748Z,22.42
2023-05-05T12:51:18.141Z,22.41
2023-05-05T12:53:47.361Z,22.38
2023-05-05T12:56:35.055Z,22.39
2023-05-05T12:59:06.549Z,22.36
2023-05-05T13:01:34.902Z,22.34
2023-05-05T13:04:11.174Z,22.34
2023-05-05T13:06:39.573Z,22.35
2023-05-05T13:09:22.827Z,22.39
2023-05-05T13:11:50.576Z,22.36
2023-05-05T13:14:20.991Z,22.31
2023-05-05T13:16:48.814Z,22.27
2023-05-05T13:19:16.544Z,22.24
2023-05-05T13:21:45.562Z,22.18
2023-05-05T13:24:28.118Z,22.16
2023-05-05T13:26:59.253Z,22.08
2023-05-05T13:29:31.341Z,22.05
2023-05-05T13:32:00.690Z,21.99
2023-05-05T13:34:29.143Z,21.95
2023-05-05T13:36:57.588Z,21.88
2023-05-05T13:39:26.566Z,21.82
2023-05-05T13:41:54.760Z,21.76
2023-05-05T13:44:22.348Z,21.67
2023-05-05T13:46:51.318Z,21.51
2023-05-05T13:49:20.000Z,21.29
2023-05-05T13:51:47.706Z,20.90
2023-05-05T13:54:15.342Z,20.59
2023-05-05T13:56:44.024Z,20.32
2023-05-05T13:59:11.631Z,19.96
2023-05-05T14:01:39.485Z,19.56
2023-05-05T14:04:09.089Z,19.23
2023-05-05T14:06:36.845Z,19.06
2023-05-05T14:09:06.209Z,18.93
2023-05-05T14:11:34.601Z,18.82
2023-05-05T14:14:02.762Z,18.73
2023-05-05T14:16:30.427Z,18.71
2023-05-05T14:18:58.066Z,18.43
2023-05-05T14:21:27.814Z,18.31
2023-05-05T14:23:56.029Z,18.18
2023-05-05T14:26:24.497Z,18.09
2023-05-05T14:28:52.093Z,18.04
2023-05-05T14:31:20.109Z,17.99
2023-05-05T14:33:48.017Z,17.96
2023-05-05T14:36:15.614Z,17.93
2023-05-05T14:38:45.121Z,17.91
2023-05-05T14:41:14.026Z,17.87
2023-05-05T14:43:42.879Z,17.78
2023-05-05T14:46:10.558Z,17.69
2023-05-05T14:48:38.261Z,17.52
2023-05-05T14:51:06.039Z,17.20
2023-05-05T14:53:33.720Z,17.03
2023-05-05T14:56:03.091Z,16.72
2023-05-05T14:58:31.700Z,16.49
2023-05-05T15:01:00.339Z,16.35
2023-05-05T15:03:28.881Z,16.19
2023-05-05T15:05:56.507Z,16.12
2023-05-05T15:08:24.383Z,16.02
2023-05-05T15:10:52.095Z,15.86
2023-05-05T15:13:21.139Z,15.76
2023-05-05T15:15:49.913Z,15.59
2023-05-05T15:18:17.922Z,15.47
2023-05-05T15:20:45.512Z,15.35
2023-05-05T15:23:13.145Z,15.33
2023-05-05T15:25:40.729Z,15.22
2023-05-05T15:28:08.335Z,15.16
2023-05-05T15:30:37.343Z,15.06
2023-05-05T15:33:05.066Z,15.00
2023-05-05T15:35:32.710Z,14.90
2023-05-05T15:38:00.447Z,14.87
2023-05-05T15:40:28.112Z,14.85
2023-05-05T15:42:56.685Z,14.86
2023-05-05T15:45:24.921Z,14.82
2023-05-05T15:47:54.768Z,14.81
2023-05-05T15:50:23.274Z,14.81
2023-05-05T15:52:50.917Z,14.81
2023-05-05T15:55:20.211Z,14.79
2023-05-05T15:57:48.416Z,14.79
2023-05-05T16:00:42.026Z,14.82
2023-05-05T16:03:11.518Z,14.87
2023-05-05T16:05:39.537Z,14.86
2023-05-05T16:08:09.877Z,14.82
2023-05-05T16:10:37.713Z,14.82
2023-05-05T16:13:05.590Z,14.82
2023-05-05T16:15:33.192Z,14.81
2023-05-05T16:18:00.812Z,14.59
2023-05-05T16:20:29.978Z,14.51
2023-05-05T16:22:57.843Z,14.49
2023-05-05T16:25:25.519Z,14.48
2023-05-05T16:27:56.454Z,14.47
2023-05-05T16:30:24.475Z,14.47
2023-05-05T16:32:52.293Z,14.43
2023-05-05T16:35:20.203Z,14.45
2023-05-05T16:37:49.912Z,14.46
2023-05-05T16:40:18.036Z,14.44
2023-05-05T16:42:45.808Z,14.43
2023-05-05T16:45:13.492Z,14.46
2023-05-05T16:47:41.954Z,14.44
2023-05-05T16:50:10.188Z,14.43
2023-05-05T16:52:37.833Z,14.43
2023-05-05T16:55:07.595Z,14.42
2023-05-05T16:57:35.474Z,14.40
2023-05-05T17:00:03.254Z,14.34
2023-05-05T17:02:30.965Z,14.30
2023-05-05T17:04:58.656Z,14.28
2023-05-05T17:07:26.425Z,14.29
2023-05-05T17:09:55.678Z,14.30
2023-05-05T17:12:24.608Z,14.33
2023-05-05T17:14:52.261Z,14.33
2023-05-05T17:17:19.965Z,14.32
2023-05-05T17:19:47.616Z,14.31
2023-05-05T17:22:16.396Z,14.30
2023-05-05T17:24:43.976Z,14.28
2023-05-05T17:27:12.652Z,14.31
2023-05-05T17:29:41.668Z,14.27
2023-05-05T17:32:10.078Z,14.26
2023-05-05T17:34:37.744Z,14.26
2023-05-05T17:37:05.371Z,14.26
2023-05-05T17:39:33.480Z,14.24
2023-05-05T17:42:01.123Z,14.28
2023-05-05T17:44:28.916Z,14.25
2023-05-05T17:46:59.035Z,14.19
2023-05-05T17:49:26.780Z,14.16
2023-05-05T17:51:54.395Z,14.15
2023-05-05T17:54:21.993Z,14.15
2023-05-05T17:56:49.593Z,14.16
2023-05-05T17:59:18.038Z,14.18
2023-05-05T18:01:45.843Z,14.22
2023-05-05T18:04:14.916Z,14.22
2023-05-05T18:06:42.498Z,14.20
2023-05-05T18:09:11.258Z,14.16
2023-05-05T18:11:38.972Z,14.12
2023-05-05T18:14:06.592Z,14.17
2023-05-05T18:16:34.153Z,14.16
2023-05-05T18:19:02.445Z,14.17
2023-05-05T18:21:31.931Z,14.16
2023-05-05T18:24:11.474Z,14.16
2023-05-05T18:26:48.599Z,14.16
2023-05-05T18:29:16.462Z,14.18
2023-05-05T18:31:44.570Z,14.16
2023-05-05T18:34:12.306Z,14.13
2023-05-05T18:36:41.296Z,14.12
2023-05-05T18:39:08.849Z,14.10
2023-05-05T18:41:36.987Z,14.07
2023-05-05T18:44:04.801Z,14.04
2023-05-05T18:46:33.068Z,14.01
2023-05-05T18:49:01.176Z,13.97
2023-05-05T18:51:28.917Z,13.94
2023-05-05T18:53:57.950Z,13.90
2023-05-05T18:56:25.578Z,13.87
2023-05-05T18:58:53.257Z,13.84
2023-05-05T19:01:21.620Z,13.79
2023-05-05T19:03:49.741Z,13.76
2023-05-05T19:06:17.917Z,13.71
2023-05-05T19:08:47.128Z,13.68
2023-05-05T19:11:16.879Z,13.62
2023-05-05T19:13:44.525Z,13.60
2023-05-05T19:16:16.136Z,13.52
2023-05-05T19:18:43.930Z,13.48
2023-05-05T19:21:11.633Z,13.36
2023-05-05T19:23:39.377Z,13.31
2023-05-05T19:26:06.950Z,13.26
2023-05-05T19:28:36.115Z,13.21
2023-05-05T19:31:03.912Z,13.18
2023-05-05T19:33:31.484Z,13.15
2023-05-05T19:35:59.550Z,13.13
2023-05-05T19:38:29.045Z,13.07
2023-05-05T19:40:56.626Z,13.04
2023-05-05T19:43:24.176Z,13.02
2023-05-05T19:45:54.089Z,13.01
2023-05-05T19:48:21.936Z,12.96
2023-05-05T19:50:49.635Z,12.91
2023-05-05T19:53:17.554Z,12.86
2023-05-05T19:55:45.991Z,12.80
2023-05-05T19:58:15.035Z,12.75
2023-05-05T20:00:42.695Z,12.70
2023-05-05T20:03:11.986Z,12.67
2023-05-05T20:05:40.229Z,12.62
2023-05-05T20:08:07.941Z,12.61
2023-05-05T20:10:36.483Z,12.57
2023-05-05T20:13:04.202Z,12.54
2023-05-05T20:15:33.229Z,12.52
2023-05-05T20:18:00.972Z,12.48
2023-05-05T20:20:30.398Z,12.46
2023-05-05T20:22:57.969Z,12.41
2023-05-05T20:25:25.609Z,12.38
2023-05-05T20:27:53.189Z,12.33
2023-05-05T20:30:20.877Z,12.28
2023-05-05T20:32:48.444Z,12.26
2023-05-05T20:35:16.201Z,12.24
2023-05-05T20:37:46.072Z,12.21
2023-05-05T20:40:15.052Z,12.18
2023-05-05T20:42:42.740Z,12.15
2023-05-05T20:45:12.053Z,12.14
2023-05-05T20:47:40.196Z,12.13
2023-05-05T20:50:09.079Z,12.09
2023-05-05T20:52:37.055Z,12.01
2023-05-05T20:55:07.182Z,11.97
2023-05-05T20:57:34.815Z,11.95
2023-05-05T21:00:02.623Z,11.90
2023-05-05T21:02:32.207Z,11.85
2023-05-05T21:05:02.795Z,11.80
2023-05-05T21:07:31.160Z,11.77
2023-05-05T21:09:58.789Z,11.76
2023-05-05T21:12:28.059Z,11.73
2023-05-05T21:14:58.597Z,11.70
2023-05-05T21:17:28.085Z,11.66
2023-05-05T21:19:57.376Z,11.63
2023-05-05T21:22:25.186Z,11.59
2023-05-05T21:24:53.455Z,11.56
2023-05-05T21:27:21.488Z,11.51
2023-05-05T21:29:52.033Z,11.47
2023-05-05T21:32:21.203Z,11.41
2023-05-05T21:34:48.879Z,11.36
2023-05-05T21:37:16.452Z,11.34
2023-05-05T21:39:44.576Z,11.31
2023-05-05T21:42:15.043Z,11.29
2023-05-05T21:44:43.138Z,11.25
2023-05-05T21:47:12.424Z,11.21
2023-05-05T21:49:41.093Z,11.18
2023-05-05T21:52:08.660Z,11.15
2023-05-05T21:54:36.587Z,11.09
2023-05-05T21:57:04.788Z,11.05
2023-05-05T21:59:32.560Z,11.01
2023-05-05T22:02:04.175Z,10.98
2023-05-05T22:04:34.063Z,10.93
2023-05-05T22:07:02.057Z,10.91
2023-05-05T22:09:29.657Z,10.86
2023-05-05T22:11:58.444Z,10.79
2023-05-05T22:14:27.557Z,10.74
2023-05-05T22:16:55.722Z,10.70
2023-05-05T22:19:23.724Z,10.66
2023-05-05T22:21:53.299Z,10.63
2023-05-05T22:24:21.822Z,10.62
2023-05-05T22:26:49.385Z,10.60
2023-05-05T22:29:16.976Z,10.56
2023-05-05T22:31:44.582Z,10.51
2023-05-05T22:34:12.575Z,10.48
2023-05-05T22:36:40.179Z,10.43
2023-05-05T22:39:10.064Z,10.42
2023-05-05T22:41:38.305Z,10.41
2023-05-05T22:44:06.847Z,10.38
2023-05-05T22:46:34.687Z,10.35
2023-05-05T22:49:02.337Z,10.32
2023-05-05T22:51:30.239Z,10.30
2023-05-05T22:54:00.586Z,10.27
2023-05-05T22:56:30.137Z,10.24
2023-05-05T22:58:58.363Z,10.23
2023-05-05T23:01:26.266Z,10.20
2023-05-05T23:03:53.970Z,10.15
2023-05-05T23:06:47.174Z,10.11
2023-05-05T23:09:14.793Z,10.09
2023-05-05T23:11:43.696Z,10.07
2023-05-05T23:14:11.371Z,10.05
2023-05-05T23:16:39.075Z,10.03
2023-05-05T23:19:07.564Z,10.01
2023-05-05T23:21:49.408Z,9.97
2023-05-05T23:24:21.708Z,9.94
2023-05-05T23:26:51.955Z,9.91
2023-05-05T23:29:19.971Z,9.89
2023-05-05T23:31:47.865Z,9.85
2023-05-05T23:34:16.162Z,9.83
2023-05-05T23:36:44.065Z,9.79
2023-05-05T23:39:11.705Z,9.77
2023-05-05T23:41:41.141Z,9.74
2023-05-05T23:44:11.145Z,9.71
2023-05-05T23:46:39.212Z,9.68
2023-05-05T23:49:06.886Z,9.67
2023-05-05T23:51:36.057Z,9.64
2023-05-05T23:54:03.622Z,9.62
2023-05-05T23:56:31.443Z,9.58
2023-05-05T23:58:59.398Z,9.55
